Time;durP1;ratioP1;P1;durP2;ratioP2;P2;SDS_P1;SDS_P2;PMS_P1;PMS_P2;Temp;Humidity;BMP_temperature;BMP_pressure;BME280_temperature;BME280_humidity;BME280_pressure;Samples;Min_cycle;Max_cycle;Signal;HPM_P1;HPM_P2
2022/03/06 00:00:57;;;;;;;27.35;12.73;;;;;;;1.98;62.53;98525.72;5093208;28;20046;-95
2022/03/06 00:03:22;;;;;;;28.40;14.02;;;;;;;1.79;62.91;98503.78;5092812;28;20048;-94
2022/03/06 00:05:48;;;;;;;25.77;14.13;;;;;;;1.84;62.32;98504.69;5093618;28;20066;-94
2022/03/06 00:08:14;;;;;;;25.45;13.10;;;;;;;1.93;62.91;98526.56;5092723;28;20540;-94
2022/03/06 00:10:40;;;;;;;25.35;12.02;;;;;;;1.82;62.23;98514.31;5092547;28;20044;-94
2022/03/06 00:13:06;;;;;;;27.48;12.38;;;;;;;1.78;62.70;98507.28;5092736;28;20083;-95
2022/03/06 00:15:32;;;;;;;27.80;12.27;;;;;;;1.88;62.75;98512.56;5093605;28;20044;-94
2022/03/06 00:18:00;;;;;;;29.30;14.05;;;;;;;1.93;62.96;98531.78;5094047;28;20044;-94
2022/03/06 00:20:26;;;;;;;24.85;12.90;;;;;;;1.89;62.87;98527.41;5081528;28;20120;-94
2022/03/06 00:22:52;;;;;;;26.92;13.88;;;;;;;1.73;63.21;98495.03;5079633;28;20084;-95
2022/03/06 00:25:18;;;;;;;25.40;11.80;;;;;;;1.74;63.49;98507.28;5078342;28;20075;-95
2022/03/06 00:27:44;;;;;;;27.05;12.85;;;;;;;1.76;63.44;98493.31;5079284;28;20545;-94
2022/03/06 00:30:11;;;;;;;25.30;12.65;;;;;;;1.83;63.27;98515.16;5078156;28;20067;-94
2022/03/06 00:32:37;;;;;;;24.38;12.18;;;;;;;1.90;63.01;98522.19;5077922;28;20067;-96
2022/03/06 00:35:05;;;;;;;29.67;12.25;;;;;;;1.92;62.91;98516.94;5096218;28;20044;-94
2022/03/06 00:37:31;;;;;;;26.93;13.60;;;;;;;1.93;63.07;98511.72;5084240;28;20044;-94
2022/03/06 00:39:57;;;;;;;29.67;13.40;;;;;;;1.81;63.09;98496.81;5077979;28;20155;-95
2022/03/06 00:42:23;;;;;;;25.83;13.00;;;;;;;1.82;63.52;98498.56;5078283;28;20055;-94
2022/03/06 00:44:50;;;;;;;28.88;14.32;;;;;;;1.96;63.44;98518.72;5078959;28;20040;-93
2022/03/06 00:47:16;;;;;;;30.40;14.00;;;;;;;1.84;63.75;98506.41;5077980;28;20040;-92
2022/03/06 00:49:42;;;;;;;27.48;12.65;;;;;;;1.93;63.99;98526.56;5078300;28;20371;-95
2022/03/06 00:52:10;;;;;;;27.95;13.60;;;;;;;1.77;64.13;98494.16;5079551;28;20052;-95
2022/03/06 00:54:35;;;;;;;31.02;13.45;;;;;;;1.83;63.97;98497.69;5079573;28;20045;-95
2022/03/06 00:57:01;;;;;;;28.58;12.77;;;;;;;1.79;64.29;98493.28;5078369;28;20098;-94
2022/03/06 00:59:33;;;;;;;26.92;14.05;;;;;;;1.93;63.82;98501.22;5077988;28;20131;-94
2022/03/06 01:01:59;;;;;;;25.58;12.70;;;;;;;1.98;63.84;98514.34;5076757;28;20518;-95
2022/03/06 01:04:24;;;;;;;26.90;12.48;;;;;;;1.85;64.81;98505.56;5077999;28;20037;-94
2022/03/06 01:06:50;;;;;;;24.15;12.13;;;;;;;1.80;64.77;98491.53;5078086;28;20532;-93
2022/03/06 01:09:18;;;;;;;25.35;12.80;;;;;;;2.02;64.41;98516.13;5078664;28;20493;-94
2022/03/06 01:11:44;;;;;;;23.15;11.98;;;;;;;1.98;63.67;98483.75;5079258;28;20135;-94
2022/03/06 01:14:10;;;;;;;27.45;13.32;;;;;;;2.03;63.64;98499.50;5078515;28;20072;-93
2022/03/06 01:16:35;;;;;;;27.95;12.57;;;;;;;2.11;63.78;98508.25;5078731;28;20039;-94
2022/03/06 01:19:02;;;;;;;24.75;11.75;;;;;;;1.99;63.45;98476.75;5078309;28;20049;-95
2022/03/06 01:21:28;;;;;;;28.10;11.35;;;;;;;2.04;63.36;98491.63;5089609;28;20074;-95
2022/03/06 01:23:54;;;;;;;23.05;11.45;;;;;;;1.99;63.62;98484.63;5098579;28;20052;-91
2022/03/06 01:26:21;;;;;;;22.33;11.82;;;;;;;1.97;63.65;98487.22;5077845;28;20041;-95
2022/03/06 01:28:47;;;;;;;24.98;11.85;;;;;;;1.94;64.12;98507.34;5077204;28;20375;-96
2022/03/06 01:31:13;;;;;;;28.77;12.70;;;;;;;1.87;63.99;98480.22;5076482;28;20071;-95
2022/03/06 01:33:39;;;;;;;27.40;11.82;;;;;;;1.82;63.97;98480.22;5077394;28;20051;-94
2022/03/06 01:36:05;;;;;;;23.02;11.35;;;;;;;1.84;64.34;98480.19;5077160;28;20045;-95
2022/03/06 01:38:31;;;;;;;22.23;12.50;;;;;;;1.87;64.42;98500.34;5077366;28;20052;-93
2022/03/06 01:40:56;;;;;;;25.23;12.20;;;;;;;1.94;64.19;98499.47;5076307;28;20049;-95
2022/03/06 01:43:24;;;;;;;26.17;12.73;;;;;;;1.82;64.19;98477.59;5078432;28;20041;-92
2022/03/06 01:45:49;;;;;;;22.40;11.77;;;;;;;1.80;64.26;98474.09;5096629;28;20398;-94
2022/03/06 01:48:15;;;;;;;26.00;12.10;;;;;;;1.86;64.60;98496.81;5097689;28;20040;-93
2022/03/06 01:50:41;;;;;;;25.40;12.48;;;;;;;1.68;65.05;98475.78;5099107;28;20050;-95
2022/03/06 01:53:09;;;;;;;23.40;11.25;;;;;;;1.78;65.00;98495.94;5096036;28;20133;-93
2022/03/06 01:55:36;;;;;;;27.77;12.23;;;;;;;1.70;64.81;98479.31;5077345;28;20128;-95
2022/03/06 01:58:04;;;;;;;25.75;12.15;;;;;;;1.71;65.03;98481.91;5077238;28;20150;-94
2022/03/06 02:00:35;;;;;;;22.73;11.02;;;;;;;1.58;65.63;98464.38;5076598;28;20444;-95
2022/03/06 02:03:01;;;;;;;23.40;12.65;;;;;;;1.56;65.27;98469.66;5076070;28;20098;-94
2022/03/06 02:05:28;;;;;;;20.92;10.70;;;;;;;1.57;65.47;98470.50;5077191;28;20044;-96
2022/03/06 02:07:54;;;;;;;20.13;10.57;;;;;;;1.56;65.25;98469.66;5076998;28;20048;-93
2022/03/06 02:10:20;;;;;;;29.70;12.70;;;;;;;1.54;65.47;98460.00;5077903;28;20040;-93
2022/03/06 02:12:46;;;;;;;24.50;11.98;;;;;;;1.67;65.72;98492.38;5076325;28;20048;-94
2022/03/06 02:15:15;;;;;;;24.60;12.50;;;;;;;1.63;65.86;98496.75;5076319;28;20051;-93
2022/03/06 02:17:42;;;;;;;22.30;11.77;;;;;;;1.48;65.80;98475.72;5076099;28;20094;-94
2022/03/06 02:20:10;;;;;;;21.75;10.32;;;;;;;1.53;65.78;98480.09;5075977;28;20040;-94
2022/03/06 02:22:40;;;;;;;21.38;10.85;;;;;;;1.44;65.79;98459.97;5076819;28;20406;-94
2022/03/06 02:25:08;;;;;;;24.95;12.45;;;;;;;1.44;65.86;98470.44;5076661;28;20052;-94
2022/03/06 02:27:34;;;;;;;23.38;10.60;;;;;;;1.54;66.22;98487.09;5076240;28;20048;-95
2022/03/06 02:30:02;;;;;;;23.15;11.48;;;;;;;1.39;65.81;98451.22;5075836;28;20401;-94
2022/03/06 02:32:29;;;;;;;21.95;10.50;;;;;;;1.48;65.96;98449.53;5076228;28;20367;-92
2022/03/06 02:34:55;;;;;;;19.60;10.55;;;;;;;1.39;65.99;98445.97;5077276;28;20510;-96
2022/03/06 02:37:21;;;;;;;19.63;10.00;;;;;;;1.45;65.79;98455.59;5077188;28;20055;-95
2022/03/06 02:39:49;;;;;;;24.23;10.95;;;;;;;1.44;66.06;98467.81;5077166;28;20048;-92
2022/03/06 02:42:25;;;;;;;26.05;10.95;;;;;;;1.47;65.95;98453.84;5076527;28;20041;-93
2022/03/06 02:44:51;;;;;;;21.65;10.50;;;;;;;1.36;66.10;98445.09;5076930;28;20098;-93
2022/03/06 02:47:17;;;;;;;19.23;11.00;;;;;;;1.45;65.94;98460.84;5076666;28;20086;-94
2022/03/06 02:49:43;;;;;;;21.05;11.63;;;;;;;1.55;65.47;98467.00;5076948;28;20048;-94
2022/03/06 02:52:09;;;;;;;24.02;11.73;;;;;;;1.51;65.65;98465.25;5076552;28;20052;-95
2022/03/06 02:54:36;;;;;;;20.80;9.50;;;;;;;1.47;65.91;98466.09;5076903;28;20048;-94
2022/03/06 02:57:04;;;;;;;19.33;11.30;;;;;;;1.33;65.89;98455.56;5077104;28;20040;-94
2022/03/06 02:59:30;;;;;;;20.75;10.43;;;;;;;1.37;65.86;98462.56;5076856;28;20045;-94
2022/03/06 03:01:56;;;;;;;19.58;10.63;;;;;;;1.36;65.67;98451.19;5078762;28;20048;-93
2022/03/06 03:04:22;;;;;;;21.02;10.48;;;;;;;1.32;66.35;98462.53;5077637;28;20048;-93
2022/03/06 03:06:50;;;;;;;21.58;10.15;;;;;;;1.27;67.43;98459.00;5076402;28;20501;-93
2022/03/06 03:09:17;;;;;;;21.00;10.23;;;;;;;1.37;66.35;98467.81;5075876;28;20055;-92
2022/03/06 03:11:43;;;;;;;20.05;9.20;;;;;;;1.36;66.43;98472.16;5076841;28;20044;-93
2022/03/06 03:14:10;;;;;;;20.08;9.40;;;;;;;1.36;65.99;98463.41;5076451;28;20051;-92
2022/03/06 03:16:36;;;;;;;21.23;10.40;;;;;;;1.41;65.93;98475.69;5075787;28;20045;-94
2022/03/06 03:19:01;;;;;;;19.63;9.93;;;;;;;1.50;65.70;98476.59;5076016;28;20041;-94
2022/03/06 03:21:28;;;;;;;19.60;9.93;;;;;;;1.37;65.61;98452.09;5076131;28;20107;-94
2022/03/06 03:23:54;;;;;;;19.38;9.93;;;;;;;1.48;65.05;98466.09;5076004;28;20493;-92
2022/03/06 03:26:20;;;;;;;20.45;9.52;;;;;;;1.49;65.11;98467.84;5076611;28;20048;-92
2022/03/06 03:28:46;;;;;;;20.10;9.90;;;;;;;1.44;65.40;98473.06;5076531;28;20520;-94
2022/03/06 03:31:14;;;;;;;21.40;9.77;;;;;;;1.41;65.68;98474.78;5076683;28;20045;-93
2022/03/06 03:33:40;;;;;;;20.70;10.10;;;;;;;1.38;66.33;98488.75;5075582;28;20071;-95
2022/03/06 03:36:12;;;;;;;21.30;10.23;;;;;;;1.34;66.54;98501.84;5076664;28;20048;-93
2022/03/06 03:38:40;;;;;;;18.77;9.25;;;;;;;1.33;66.29;98498.34;5075243;28;20045;-94
2022/03/06 03:41:06;;;;;;;14.70;8.73;;;;;;;1.19;66.04;98476.44;5075697;28;20049;-94
2022/03/06 03:43:32;;;;;;;18.33;9.43;;;;;;;1.19;66.72;98479.03;5075974;28;20166;-92
2022/03/06 03:45:58;;;;;;;19.10;9.85;;;;;;;1.25;66.07;98481.69;5077195;28;20045;-94
2022/03/06 03:48:25;;;;;;;19.65;9.57;;;;;;;1.26;65.96;98491.34;5076470;28;20040;-94
2022/03/06 03:50:52;;;;;;;18.40;9.15;;;;;;;1.19;66.00;98479.03;5076502;28;20045;-93
2022/03/06 03:53:18;;;;;;;19.10;10.00;;;;;;;1.07;67.63;98486.84;5076979;28;20045;-93
2022/03/06 03:55:44;;;;;;;20.15;9.32;;;;;;;1.00;67.73;98484.19;5078245;28;20056;-94
2022/03/06 03:58:10;;;;;;;17.10;10.32;;;;;;;1.00;67.50;98494.66;5080254;28;20045;-92
2022/03/06 04:00:36;;;;;;;20.27;9.48;;;;;;;0.84;67.51;98491.91;5080323;28;20139;-93
2022/03/06 04:03:02;;;;;;;19.92;9.85;;;;;;;0.95;68.63;98524.28;5081334;28;20390;-95
2022/03/06 04:05:29;;;;;;;19.15;9.50;;;;;;;0.76;68.95;98499.69;5081776;28;20052;-94
2022/03/06 04:07:55;;;;;;;16.67;8.73;;;;;;;0.73;69.16;98520.63;5080399;28;20075;-95
2022/03/06 04:10:21;;;;;;;18.35;9.68;;;;;;;0.73;68.85;98499.69;5080001;28;20040;-94
2022/03/06 04:12:47;;;;;;;21.48;10.07;;;;;;;0.79;68.37;98490.13;5080450;28;20064;-94
2022/03/06 04:15:13;;;;;;;17.92;9.00;;;;;;;0.83;68.71;98522.47;5081448;28;20045;-94
2022/03/06 04:17:38;;;;;;;17.35;9.25;;;;;;;0.68;69.98;98501.41;5079637;28;20044;-93
2022/03/06 04:20:06;;;;;;;19.50;8.38;;;;;;;0.81;68.06;98503.25;5078816;28;20051;-93
2022/03/06 04:22:34;;;;;;;16.73;8.93;;;;;;;0.91;67.97;98518.16;5079151;28;20056;-93
2022/03/06 04:25:00;;;;;;;22.42;10.07;;;;;;;0.73;69.12;98497.06;5080386;28;20072;-92
2022/03/06 04:27:26;;;;;;;18.80;9.70;;;;;;;0.57;69.90;98502.19;5080648;28;20043;-93
2022/03/06 04:29:52;;;;;;;17.95;9.00;;;;;;;0.77;67.74;98506.69;5078148;28;20059;-93
2022/03/06 04:32:18;;;;;;;17.42;8.55;;;;;;;0.63;68.45;98490.00;5079107;28;20048;-93
2022/03/06 04:34:44;;;;;;;20.50;9.70;;;;;;;0.96;66.81;98505.09;5078285;28;20048;-94
2022/03/06 04:37:10;;;;;;;19.20;9.35;;;;;;;0.96;66.50;98505.09;5078223;28;20048;-93
2022/03/06 04:39:37;;;;;;;20.20;10.00;;;;;;;0.90;67.28;98492.84;5079507;28;20047;-94
2022/03/06 04:42:04;;;;;;;16.92;9.07;;;;;;;1.02;67.62;98526.09;5078758;28;20500;-94
2022/03/06 04:44:30;;;;;;;17.05;8.93;;;;;;;0.63;68.88;98498.75;5078970;28;20071;-94
2022/03/06 04:46:56;;;;;;;22.85;9.63;;;;;;;0.53;69.00;98503.03;5078918;28;20052;-93
2022/03/06 04:49:22;;;;;;;19.77;9.95;;;;;;;0.57;68.71;98502.19;5079955;28;20044;-92
2022/03/06 04:51:47;;;;;;;18.13;9.32;;;;;;;0.63;67.89;98509.22;5078957;28;20105;-93
2022/03/06 04:54:13;;;;;;;17.52;9.23;;;;;;;0.52;69.74;98526.53;5079431;28;20543;-93
2022/03/06 04:56:41;;;;;;;20.70;9.77;;;;;;;0.57;69.15;98530.09;5079448;28;20049;-96
2022/03/06 04:59:07;;;;;;;19.17;9.55;;;;;;;0.54;67.43;98502.19;5078281;28;20470;-94
2022/03/06 05:01:32;;;;;;;20.27;9.52;;;;;;;0.50;67.87;98500.38;5078249;28;20056;-92
2022/03/06 05:04:00;;;;;;;18.92;9.82;;;;;;;0.55;68.76;98522.22;5078432;28;20072;-94
2022/03/06 05:06:27;;;;;;;20.10;9.18;;;;;;;0.35;68.85;98508.97;5077530;28;20048;-94
2022/03/06 05:08:53;;;;;;;19.02;9.35;;;;;;;0.31;70.20;98524.63;5077425;28;20048;-94
2022/03/06 05:11:19;;;;;;;22.73;10.02;;;;;;;0.25;70.71;98537.63;5077414;28;20040;-94
2022/03/06 05:13:46;;;;;;;17.80;9.15;;;;;;;0.00;71.35;98524.31;5078206;28;20048;-93
2022/03/06 05:16:13;;;;;;;16.75;9.00;;;;;;;0.00;71.12;98516.47;5077588;28;20053;-93
2022/03/06 05:18:39;;;;;;;20.15;9.15;;;;;;;0.11;71.13;98550.53;5077370;28;20064;-93
2022/03/06 05:21:05;;;;;;;19.10;9.90;;;;;;;-0.10;71.83;98528.53;5077281;28;20041;-94
2022/03/06 05:23:31;;;;;;;22.90;9.50;;;;;;;-0.15;72.37;98517.16;5076969;28;20044;-95
2022/03/06 05:25:57;;;;;;;18.10;9.13;;;;;;;-0.14;72.73;98544.16;5076800;28;20486;-93
2022/03/06 05:28:23;;;;;;;21.77;8.90;;;;;;;-0.25;73.40;98536.19;5077408;28;20045;-94
2022/03/06 05:30:51;;;;;;;18.00;9.15;;;;;;;-0.02;71.99;98555.66;5077066;28;20079;-94
2022/03/06 05:33:17;;;;;;;18.58;8.98;;;;;;;-0.11;72.22;98524.19;5077261;28;20219;-93
2022/03/06 05:35:43;;;;;;;19.27;9.48;;;;;;;-0.21;72.72;98531.03;5077463;28;20131;-95
2022/03/06 05:38:08;;;;;;;16.95;9.20;;;;;;;-0.25;73.31;98550.13;5077264;28;20438;-93
2022/03/06 05:40:34;;;;;;;20.25;10.43;;;;;;;-0.50;73.84;98542.84;5076357;28;20055;-92
2022/03/06 05:43:00;;;;;;;18.83;9.88;;;;;;;-0.63;75.33;98555.75;5077469;28;20160;-94
2022/03/06 05:45:26;;;;;;;21.20;10.52;;;;;;;-0.85;76.16;98553.66;5075814;28;20127;-94
2022/03/06 05:47:54;;;;;;;19.83;10.13;;;;;;;-0.94;76.29;98535.25;5076138;28;20100;-94
2022/03/06 05:50:19;;;;;;;22.42;10.68;;;;;;;-0.94;76.43;98545.72;5076698;28;20086;-95
2022/03/06 05:52:45;;;;;;;20.98;11.45;;;;;;;-0.93;76.94;98563.09;5075869;28;20044;-95
2022/03/06 05:55:11;;;;;;;24.65;11.23;;;;;;;-0.88;77.04;98567.56;5075730;28;20041;-94
2022/03/06 05:57:37;;;;;;;19.85;10.43;;;;;;;-1.00;77.71;98549.09;5076755;28;20040;-94
2022/03/06 06:00:08;;;;;;;19.63;9.65;;;;;;;-0.71;77.19;98567.81;5077045;28;20062;-95
2022/03/06 06:02:34;;;;;;;22.77;10.07;;;;;;;-0.82;77.36;98543.28;5078146;28;20069;-95
2022/03/06 06:05:02;;;;;;;21.40;9.52;;;;;;;-0.66;76.06;98545.25;5078828;28;20055;-96
2022/03/06 06:07:28;;;;;;;22.17;10.38;;;;;;;-0.58;76.45;98549.72;5079571;28;20049;-95
2022/03/06 06:09:54;;;;;;;20.92;9.30;;;;;;;-0.60;76.69;98541.84;5079434;28;20067;-95
2022/03/06 06:12:19;;;;;;;23.35;10.13;;;;;;;-0.56;76.58;98543.66;5078157;28;20110;-94
2022/03/06 06:14:45;;;;;;;18.45;10.23;;;;;;;-0.46;77.01;98562.91;5078094;28;20044;-92
2022/03/06 06:17:11;;;;;;;18.05;9.13;;;;;;;-0.41;77.42;98553.44;5077884;28;20052;-93
2022/03/06 06:19:37;;;;;;;19.42;9.35;;;;;;;-0.38;77.16;98549.97;5079234;28;20512;-93
2022/03/06 06:22:04;;;;;;;21.58;10.57;;;;;;;-0.19;75.07;98559.81;5078983;28;20052;-93
2022/03/06 06:24:30;;;;;;;17.92;9.88;;;;;;;0.20;73.19;98566.34;5079349;28;20036;-93
2022/03/06 06:26:56;;;;;;;19.50;9.63;;;;;;;0.26;73.50;98561.19;5078207;28;20102;-94
2022/03/06 06:29:23;;;;;;;20.05;9.63;;;;;;;0.39;73.25;98570.00;5078743;28;20072;-93
2022/03/06 06:31:49;;;;;;;18.08;9.18;;;;;;;0.27;73.81;98549.84;5077714;28;20055;-95
2022/03/06 06:34:15;;;;;;;17.67;8.85;;;;;;;0.36;74.18;98568.25;5078192;28;20045;-93
2022/03/06 06:36:41;;;;;;;20.02;9.52;;;;;;;0.36;74.50;98562.16;5076854;28;20102;-94
2022/03/06 06:39:09;;;;;;;24.77;10.80;;;;;;;0.43;74.55;98566.56;5078683;28;20143;-92
2022/03/06 06:41:36;;;;;;;17.60;9.15;;;;;;;0.46;73.98;98553.53;5079180;28;20104;-93
2022/03/06 06:44:02;;;;;;;22.08;9.30;;;;;;;0.71;71.71;98554.63;5079407;28;20133;-94
2022/03/06 06:46:28;;;;;;;19.77;9.77;;;;;;;0.94;72.19;98577.53;5079273;28;20081;-95
2022/03/06 06:48:54;;;;;;;16.92;9.18;;;;;;;1.16;70.55;98574.19;5077898;28;20469;-94
2022/03/06 06:51:19;;;;;;;18.08;9.88;;;;;;;1.37;67.05;98549.91;5077577;28;20076;-94
2022/03/06 06:53:45;;;;;;;16.27;8.75;;;;;;;1.71;65.45;98557.91;5077940;28;20068;-93
2022/03/06 06:56:13;;;;;;;16.73;9.18;;;;;;;1.92;64.86;98575.50;5077716;28;20044;-93
2022/03/06 06:58:39;;;;;;;19.00;8.57;;;;;;;1.87;64.81;98553.66;5078537;28;20094;-95
2022/03/06 07:01:05;;;;;;;17.35;9.65;;;;;;;2.09;65.22;98575.56;5077842;28;20048;-93
2022/03/06 07:03:31;;;;;;;15.45;8.57;;;;;;;2.20;65.93;98580.88;5079338;28;20044;-93
2022/03/06 07:05:58;;;;;;;20.90;10.27;;;;;;;2.08;65.23;98551.97;5078581;28;20045;-94
2022/03/06 07:08:25;;;;;;;18.05;8.23;;;;;;;2.08;64.10;98546.72;5076721;28;20486;-95
2022/03/06 07:10:50;;;;;;;16.80;9.27;;;;;;;2.18;65.17;98577.34;5076855;28;20045;-96
2022/03/06 07:13:18;;;;;;;18.77;9.07;;;;;;;1.98;65.35;98548.44;5076273;28;20139;-95
2022/03/06 07:15:48;;;;;;;19.42;9.80;;;;;;;2.00;65.95;98562.44;5077220;28;20552;-96
2022/03/06 07:18:14;;;;;;;19.27;10.35;;;;;;;1.99;65.16;98560.66;5076879;28;20528;-92
2022/03/06 07:20:40;;;;;;;17.58;9.57;;;;;;;1.99;65.50;98564.16;5077781;28;20033;-95
2022/03/06 07:23:06;;;;;;;16.75;9.23;;;;;;;2.28;64.52;98583.50;5077029;28;20055;-94
2022/03/06 07:25:33;;;;;;;20.15;9.45;;;;;;;2.44;64.56;98556.44;5076615;28;20052;-93
2022/03/06 07:27:58;;;;;;;17.38;10.23;;;;;;;2.45;63.71;98571.28;5076745;28;20402;-95
2022/03/06 07:30:26;;;;;;;19.58;9.85;;;;;;;2.43;64.57;98579.19;5079331;28;20040;-94
2022/03/06 07:32:53;;;;;;;21.08;10.23;;;;;;;2.35;65.24;98569.53;5080784;28;20048;-94
2022/03/06 07:35:20;;;;;;;20.15;10.38;;;;;;;2.34;64.10;98560.81;5080643;28;20077;-94
2022/03/06 07:37:47;;;;;;;18.55;9.55;;;;;;;2.35;63.92;98553.78;5080836;28;20067;-95
2022/03/06 07:40:15;;;;;;;18.58;9.95;;;;;;;2.55;64.08;98569.56;5081264;28;20098;-95
2022/03/06 07:42:42;;;;;;;19.58;9.27;;;;;;;2.66;63.34;98544.22;5082607;28;20068;-94
2022/03/06 07:45:09;;;;;;;19.95;9.23;;;;;;;2.81;62.79;98559.09;5081795;28;20072;-93
2022/03/06 07:47:36;;;;;;;17.83;9.40;;;;;;;2.87;62.21;98572.25;5081180;28;20075;-94
2022/03/06 07:50:04;;;;;;;18.85;8.80;;;;;;;2.71;62.70;98559.97;5081583;28;20064;-95
2022/03/06 07:52:30;;;;;;;19.35;9.63;;;;;;;2.78;63.07;98567.00;5081064;28;20056;-93
2022/03/06 07:54:56;;;;;;;21.20;10.23;;;;;;;2.76;62.82;98576.63;5080961;28;20033;-93
2022/03/06 07:57:22;;;;;;;19.48;10.38;;;;;;;2.73;62.48;98576.59;5081471;28;20048;-94
2022/03/06 07:59:48;;;;;;;21.23;9.80;;;;;;;2.72;63.09;98572.22;5080022;28;20070;-95
2022/03/06 08:02:13;;;;;;;19.45;9.57;;;;;;;2.94;62.12;98573.13;5079598;28;20060;-92
2022/03/06 08:04:41;;;;;;;20.45;9.82;;;;;;;3.21;62.11;98578.38;5080197;28;20048;-96
2022/03/06 08:07:07;;;;;;;20.30;10.05;;;;;;;3.36;61.69;98572.22;5079587;28;20051;-95
2022/03/06 08:09:32;;;;;;;19.88;10.07;;;;;;;3.67;61.56;98599.31;5079044;28;20139;-93
2022/03/06 08:12:00;;;;;;;21.05;10.70;;;;;;;3.76;61.47;98593.16;5081579;28;20461;-95
2022/03/06 08:14:26;;;;;;;20.33;10.10;;;;;;;3.91;60.46;98593.13;5080831;28;20132;-95
2022/03/06 08:16:52;;;;;;;20.75;10.38;;;;;;;3.94;59.99;98600.13;5080088;28;20055;-94
2022/03/06 08:19:18;;;;;;;16.98;9.77;;;;;;;3.93;59.14;98579.09;5079751;28;20036;-94
2022/03/06 08:21:45;;;;;;;18.83;10.10;;;;;;;4.06;58.83;98593.97;5080853;28;20033;-93
2022/03/06 08:24:11;;;;;;;18.63;9.63;;;;;;;3.89;58.31;98579.09;5081279;28;20579;-93
2022/03/06 08:26:37;;;;;;;23.63;10.60;;;;;;;4.09;58.70;98607.09;5082815;28;20138;-93
2022/03/06 08:29:03;;;;;;;20.15;10.45;;;;;;;3.95;58.84;98585.19;5082923;28;20049;-94
2022/03/06 08:31:29;;;;;;;21.35;10.90;;;;;;;4.13;57.27;98603.56;5082286;28;20041;-93
2022/03/06 08:33:55;;;;;;;18.48;9.48;;;;;;;4.26;58.00;98605.25;5081533;28;20041;-95
2022/03/06 08:36:20;;;;;;;15.43;9.10;;;;;;;4.20;58.02;98576.34;5081056;28;20139;-94
2022/03/06 08:38:48;;;;;;;19.80;9.95;;;;;;;3.93;58.49;98590.50;5080785;28;20041;-96
2022/03/06 08:41:14;;;;;;;19.30;10.13;;;;;;;3.56;59.53;98580.06;5079582;28;20055;-94
2022/03/06 08:43:39;;;;;;;18.77;9.90;;;;;;;3.86;59.64;98599.25;5082494;28;20112;-95
2022/03/06 08:46:06;;;;;;;21.38;10.23;;;;;;;3.70;60.09;98572.13;5081872;28;20049;-95
2022/03/06 08:48:32;;;;;;;19.92;10.40;;;;;;;3.84;59.70;98593.16;5080375;28;20090;-95
2022/03/06 08:51:02;;;;;;;18.17;9.68;;;;;;;3.95;58.80;98578.22;5079619;28;20087;-95
2022/03/06 08:53:28;;;;;;;18.10;9.57;;;;;;;4.20;58.76;98594.75;5081048;28;20080;-95
2022/03/06 08:55:56;;;;;;;20.67;10.50;;;;;;;4.09;58.88;98594.81;5079645;28;20394;-95
2022/03/06 08:58:22;;;;;;;18.77;9.95;;;;;;;4.51;57.32;98600.75;5079100;28;20040;-94
2022/03/06 09:00:47;;;;;;;18.38;11.43;;;;;;;4.94;57.19;98578.53;5078589;28;20109;-93
2022/03/06 09:03:13;;;;;;;20.73;10.70;;;;;;;4.95;55.02;98590.81;5078207;28;20068;-94
2022/03/06 09:05:40;;;;;;;19.83;9.20;;;;;;;5.21;55.17;98582.72;5079177;28;20045;-94
2022/03/06 09:08:07;;;;;;;26.90;15.73;;;;;;;5.68;54.61;98594.59;5078957;28;20048;-94
2022/03/06 09:10:34;;;;;;;20.92;10.32;;;;;;;5.64;54.80;98597.22;5078365;28;20071;-92
2022/03/06 09:13:01;;;;;;;17.13;9.10;;;;;;;5.48;52.79;98602.66;5059622;28;20045;-91
2022/03/06 09:15:27;;;;;;;19.60;9.20;;;;;;;4.99;53.83;98573.22;5063659;28;20486;-95
2022/03/06 09:17:53;;;;;;;27.52;14.40;;;;;;;5.35;52.55;98614.22;5079070;28;20053;-94
2022/03/06 09:20:19;;;;;;;47.70;24.45;;;;;;;5.36;52.15;98602.78;5080825;28;20808;-95
2022/03/06 09:22:46;;;;;;;26.58;14.00;;;;;;;5.20;51.88;98578.31;5081567;28;20051;-96
2022/03/06 09:25:12;;;;;;;18.40;9.38;;;;;;;4.98;52.76;98588.16;5081031;28;20052;-95
2022/03/06 09:27:38;;;;;;;23.48;13.45;;;;;;;5.08;52.33;98597.75;5080701;28;20036;-94
2022/03/06 09:30:07;;;;;;;17.55;10.02;;;;;;;5.18;51.79;98593.25;5080738;28;20059;-91
2022/03/06 09:32:33;;;;;;;17.25;8.32;;;;;;;5.02;51.78;98567.94;5079784;28;20052;-94
2022/03/06 09:34:58;;;;;;;26.63;14.95;;;;;;;5.30;52.79;98597.56;5081884;28;20388;-95
2022/03/06 09:37:24;;;;;;;16.17;9.43;;;;;;;5.65;51.81;98578.75;5080256;28;20067;-95
2022/03/06 09:39:51;;;;;;;18.52;9.32;;;;;;;5.58;50.73;98560.41;5078512;28;20490;-94
2022/03/06 09:42:18;;;;;;;18.00;9.50;;;;;;;6.05;50.20;98567.81;5080637;28;20050;-94
2022/03/06 09:44:45;;;;;;;57.92;30.83;;;;;;;6.30;48.79;98583.34;5078307;28;20037;-96
2022/03/06 09:47:13;;;;;;;17.15;8.40;;;;;;;6.73;48.41;98557.19;5079338;28;20074;-94
2022/03/06 09:49:43;;;;;;;18.55;10.48;;;;;;;6.36;46.95;98556.84;5078660;28;20059;-93
2022/03/06 09:52:09;;;;;;;16.10;8.40;;;;;;;6.34;47.28;98562.13;5080632;28;20040;-93
2022/03/06 09:54:35;;;;;;;15.45;8.35;;;;;;;6.54;47.24;98571.56;5081791;28;20076;-96
2022/03/06 09:57:01;;;;;;;14.10;8.00;;;;;;;6.76;45.91;98559.78;5078741;28;20043;-94
2022/03/06 09:59:27;;;;;;;14.40;7.80;;;;;;;6.13;48.18;98565.91;5078746;28;20451;-96
2022/03/06 10:01:53;;;;;;;19.95;9.98;;;;;;;6.24;47.66;98563.16;5078266;28;20044;-96
2022/03/06 10:04:25;;;;;;;17.08;9.10;;;;;;;6.30;47.57;98556.94;5078159;28;20053;-92
2022/03/06 10:06:58;;;;;;;15.45;8.52;;;;;;;6.23;48.13;98556.13;5077018;28;20052;-95
2022/03/06 10:09:24;;;;;;;14.63;7.22;;;;;;;6.07;48.30;98573.94;5078107;28;20078;-95
2022/03/06 10:11:52;;;;;;;19.83;10.40;;;;;;;5.91;48.79;98552.09;5081445;28;20064;-95
2022/03/06 10:14:34;;;;;;;14.00;8.27;;;;;;;5.91;49.23;98574.97;5080431;28;20044;-95
2022/03/06 10:17:11;;;;;;;41.30;19.13;;;;;;;5.88;48.81;98549.50;5079520;28;20044;-92
2022/03/06 10:19:53;;;;;;;24.35;11.90;;;;;;;6.36;46.58;98560.34;5069240;28;20040;-94
2022/03/06 10:22:20;;;;;;;21.88;10.50;;;;;;;6.34;46.81;98569.19;5080207;28;20162;-94
2022/03/06 10:24:47;;;;;;;11.20;6.30;;;;;;;5.94;46.02;98574.91;5079756;28;20036;-95
2022/03/06 10:27:14;;;;;;;15.38;8.38;;;;;;;5.86;46.93;98556.56;5084448;28;20045;-95
2022/03/06 10:29:41;;;;;;;12.60;7.03;;;;;;;6.18;45.13;98552.69;5084905;28;20048;-93
2022/03/06 10:32:07;;;;;;;12.65;7.22;;;;;;;6.44;45.67;98547.06;5082458;28;20040;-94
2022/03/06 10:34:35;;;;;;;14.68;7.93;;;;;;;6.43;45.31;98584.91;5083405;28;20048;-92
2022/03/06 10:37:05;;;;;;;15.73;8.10;;;;;;;6.76;46.53;98580.03;5081664;28;20104;-93
2022/03/06 10:39:43;;;;;;;17.90;9.93;;;;;;;6.78;45.29;98546.53;5081992;28;20055;-92
2022/03/06 10:42:10;;;;;;;15.98;7.80;;;;;;;7.13;44.17;98529.22;5082496;28;20076;-92
2022/03/06 10:44:44;;;;;;;14.43;6.72;;;;;;;7.43;43.28;98527.81;5081801;28;20135;-93
2022/03/06 10:47:10;;;;;;;14.90;7.55;;;;;;;7.39;43.07;98527.03;5083863;28;20049;-94
2022/03/06 10:49:36;;;;;;;17.55;9.15;;;;;;;7.53;42.84;98526.75;5085281;28;20036;-96
2022/03/06 10:52:19;;;;;;;16.83;9.10;;;;;;;7.64;43.58;98523.03;5083485;28;20055;-94
2022/03/06 10:54:49;;;;;;;22.65;10.75;;;;;;;7.89;42.55;98550.75;5084751;28;20040;-94
2022/03/06 10:57:16;;;;;;;13.57;7.13;;;;;;;7.89;43.16;98560.47;5081805;28;20114;-92
2022/03/06 10:59:43;;;;;;;12.35;6.75;;;;;;;7.17;43.24;98534.44;5079826;28;20037;-92
2022/03/06 11:02:11;;;;;;;13.05;7.57;;;;;;;7.31;43.33;98538.66;5076116;28;20051;-92
2022/03/06 11:04:38;;;;;;;12.05;7.60;;;;;;;7.48;43.03;98549.78;5078901;28;20056;-93
2022/03/06 11:07:08;;;;;;;14.07;8.77;;;;;;;7.44;44.05;98512.81;5080449;28;20108;-92
2022/03/06 11:09:38;;;;;;;13.35;7.68;;;;;;;7.82;42.80;98546.50;5081001;28;20108;-92
2022/03/06 11:12:06;;;;;;;16.08;8.07;;;;;;;7.23;44.07;98528.19;5085694;28;20048;-93
2022/03/06 11:14:33;;;;;;;16.75;8.25;;;;;;;7.61;44.11;98547.75;5087136;28;20449;-95
2022/03/06 11:17:00;;;;;;;15.52;8.77;;;;;;;7.55;43.17;98518.81;5088538;28;20040;-92
2022/03/06 11:19:26;;;;;;;13.65;7.38;;;;;;;7.41;42.97;98519.03;5086059;28;20473;-93
2022/03/06 11:22:01;;;;;;;68.03;27.40;;;;;;;7.65;42.43;98556.53;5083269;28;20049;-93
2022/03/06 11:24:29;;;;;;;13.88;7.43;;;;;;;7.64;42.71;98520.41;5081680;28;20048;-95
2022/03/06 11:27:09;;;;;;;16.48;8.48;;;;;;;8.12;40.95;98545.00;5080482;28;20076;-96